Portada
METAR-TAF:

METAR-TAF

Aeroports :

Aeroport Internacional Diori Hamani

Niamey, Níger

latitud: 13-29N, longitud: 002-10E, altitud: 223 m

Observació

L'informe es va fer fa 50 minuts, a les 19:00 UTC
Vent 6 kt del Nord-Est
Temperatura 29°C
Humitat 13%
Pressió 1013 hPa
Visibilitat: 3200 m
Pols estès

METAR: DRRN 221900Z 04006KT 3200 DU NSC 29/M02 Q1013 BECMG 2800

Hora: 20:50 (19:50 UTC)

Pronòstic

L'informe es va fer fa 2 hores i 50 minuts, a les 17:00 UTC
Pronòstic vàlid del 22 a les 18 UTC al 23 a les 24 UTC
Vent 6 kt del Est
Visibilitat: 3200 m
Pols estès
Probabilitat 40%
l' 22 a les 18 UTC al 22 a les 20 UTC
Visibilitat: 2000 m
Probabilitat 40%
l' 23 a les 06 UTC al 23 a les 08 UTC
Visibilitat: 2000 m
Probabilitat 40%
l' 23 a les 08 UTC al 23 a les 12 UTC
Vent 18 kt del Est
Visibilitat: 1200 m
torb alta de pols

TAF: DRRN 221700Z 2218/2324 08006KT 3200 DU NSC PROB40 2218/2220 2000 PROB40 2306/2308 2000 PROB40 2308/2312 10018KT 1200 BLDU

Observacions i pronòstics meteorològics de més de 4000 aeroports (METAR i TAF).

Les estacions disponibles són els punts grocs i vermells al mapa.

Posi el ratolí al punt desitjat per veure el nom de l'estació.

Feu clic per veure les observacions i els pronòstics meteorològics.

Per canviar el mapa: feu clic els botons verds amb una creu de color negre per apropar; al botó verd amb un guió per allunyar la imatge; o en les fletxes verdes per a mapes adjacents.


METAR-TAF: